Time;durP1;ratioP1;P1;durP2;ratioP2;P2;SDS_P1;SDS_P2;PMS_P1;PMS_P2;Temp;Humidity;BMP_temperature;BMP_pressure;BME280_temperature;BME280_humidity;BME280_pressure;Samples;Min_cycle;Max_cycle;Signal;HPM_P1;HPM_P2
2021/05/31 00:01:54;;;;;;;31.10;14.73;;;11.10;99.90;;;;;;5014272;28;20354;-63
2021/05/31 00:04:20;;;;;;;25.55;14.48;;;11.20;99.90;;;;;;5015712;28;20033;-63
2021/05/31 00:06:55;;;;;;;23.27;13.43;;;11.10;99.90;;;;;;5016027;28;20048;-64
2021/05/31 00:09:21;;;;;;;28.58;14.57;;;11.10;99.90;;;;;;5015376;28;20440;-63
2021/05/31 00:11:47;;;;;;;29.05;13.40;;;11.10;99.90;;;;;;5011675;28;20622;-64
2021/05/31 00:14:13;;;;;;;24.40;14.27;;;11.10;99.90;;;;;;5028278;28;20034;-63
2021/05/31 00:16:42;;;;;;;24.35;13.32;;;11.00;99.90;;;;;;5014444;28;20095;-63
2021/05/31 00:19:10;;;;;;;23.27;13.60;;;10.90;99.90;;;;;;5010382;28;20063;-63
2021/05/31 00:21:36;;;;;;;28.63;15.05;;;10.80;99.90;;;;;;5013815;28;20637;-64
2021/05/31 00:24:03;;;;;;;22.70;13.52;;;10.80;99.90;;;;;;5021060;28;20049;-63
2021/05/31 00:26:29;;;;;;;28.92;15.13;;;10.80;99.90;;;;;;5012935;28;20045;-64
2021/05/31 00:28:55;;;;;;;29.85;14.02;;;10.90;99.90;;;;;;5014752;28;20025;-63
2021/05/31 00:31:21;;;;;;;24.55;13.10;;;10.90;99.90;;;;;;5014953;28;20034;-64
2021/05/31 00:33:46;;;;;;;32.80;13.90;;;10.90;99.90;;;;;;5013693;28;20030;-63
2021/05/31 00:36:12;;;;;;;25.33;13.63;;;11.00;99.90;;;;;;5015212;28;20071;-63
2021/05/31 00:38:40;;;;;;;26.00;12.52;;;11.00;99.90;;;;;;5015624;28;20030;-63
2021/05/31 00:41:07;;;;;;;20.90;13.38;;;11.10;99.90;;;;;;5014802;28;20037;-64
2021/05/31 00:43:34;;;;;;;27.92;14.50;;;11.00;99.90;;;;;;5012675;28;20072;-63
2021/05/31 00:46:08;;;;;;;26.55;13.82;;;11.00;99.90;;;;;;5015908;28;20053;-63
2021/05/31 00:48:34;;;;;;;20.58;13.30;;;11.00;99.90;;;;;;5007078;28;20044;-63
2021/05/31 00:51:03;;;;;;;25.52;13.77;;;11.00;99.90;;;;;;5014395;28;20025;-63
2021/05/31 00:53:30;;;;;;;25.57;14.10;;;11.00;99.90;;;;;;5014483;28;20110;-64
2021/05/31 00:55:56;;;;;;;18.50;12.18;;;10.90;99.90;;;;;;5015749;28;20570;-63
2021/05/31 00:58:27;;;;;;;25.67;14.13;;;10.70;99.90;;;;;;5012900;28;20029;-63
2021/05/31 01:00:55;;;;;;;37.58;15.35;;;10.60;99.90;;;;;;5012219;28;20038;-63
2021/05/31 01:03:21;;;;;;;24.65;14.90;;;10.60;99.90;;;;;;5012446;28;22337;-63
2021/05/31 01:05:48;;;;;;;26.52;15.10;;;10.70;99.90;;;;;;5013861;28;20030;-64
2021/05/31 01:08:20;;;;;;;26.35;14.35;;;10.70;99.90;;;;;;5013429;28;20133;-64
2021/05/31 01:11:05;;;;;;;32.45;15.45;;;10.60;99.90;;;;;;5015413;28;20223;-63
2021/05/31 01:13:56;;;;;;;31.85;15.20;;;10.70;99.90;;;;;;5016410;28;20303;-63
2021/05/31 01:16:31;;;;;;;20.23;14.07;;;10.70;99.90;;;;;;5013739;28;20671;-64
2021/05/31 01:19:03;;;;;;;31.80;14.73;;;10.60;99.90;;;;;;5013647;28;20045;-63
2021/05/31 01:21:51;;;;;;;27.85;15.23;;;10.70;99.90;;;;;;5013948;28;20021;-64
2021/05/31 01:24:31;;;;;;;28.67;14.20;;;10.60;99.90;;;;;;5033783;28;20562;-64
2021/05/31 01:27:07;;;;;;;;;;;10.70;99.90;;;;;;5039650;28;20059;-63
2021/05/31 01:29:33;;;;;;;21.80;12.30;;;10.70;99.90;;;;;;5018346;28;19912;-64
2021/05/31 01:32:03;;;;;;;22.88;12.98;;;10.70;99.90;;;;;;5036645;28;20052;-64
2021/05/31 01:34:33;;;;;;;24.95;13.27;;;10.80;99.90;;;;;;5037725;28;20021;-64
2021/05/31 01:37:04;;;;;;;31.67;14.27;;;10.70;99.90;;;;;;5039203;28;20091;-64
2021/05/31 01:39:34;;;;;;;21.30;14.05;;;10.70;99.90;;;;;;5038823;28;20032;-63
2021/05/31 01:42:00;;;;;;;27.35;14.35;;;10.70;99.90;;;;;;5034323;28;20028;-64
2021/05/31 01:44:26;;;;;;;25.40;14.25;;;10.70;99.90;;;;;;5037789;28;20084;-64
2021/05/31 01:46:53;;;;;;;23.08;13.43;;;10.70;99.90;;;;;;5033572;28;20489;-64
2021/05/31 01:49:20;;;;;;;27.38;13.73;;;10.60;99.90;;;;;;5036835;28;20457;-64
2021/05/31 01:51:47;;;;;;;24.17;13.85;;;10.60;99.90;;;;;;5036901;28;20354;-63
2021/05/31 01:54:14;;;;;;;27.73;14.05;;;10.60;99.90;;;;;;5036454;28;20036;-63
2021/05/31 01:56:44;;;;;;;26.77;14.23;;;10.60;99.90;;;;;;5036747;28;20162;-64
2021/05/31 01:59:11;;;;;;;;;;;10.50;99.90;;;;;;5037049;28;20028;-63
2021/05/31 02:01:38;;;;;;;26.75;14.23;;;10.50;99.90;;;;;;5033256;28;19917;-64
2021/05/31 02:04:04;;;;;;;25.27;14.30;;;10.50;99.90;;;;;;5038255;28;20031;-64
2021/05/31 02:06:29;;;;;;;36.78;15.77;;;10.40;99.90;;;;;;5033632;28;20030;-64
2021/05/31 02:08:55;;;;;;;27.65;14.52;;;10.40;99.90;;;;;;5037796;28;20064;-64
2021/05/31 02:11:34;;;;;;;24.77;15.07;;;10.40;99.90;;;;;;5035971;28;20037;-64
2021/05/31 02:14:05;;;;;;;23.92;14.80;;;10.50;99.90;;;;;;5037684;28;20132;-63
2021/05/31 02:16:49;;;;;;;31.50;15.10;;;10.50;99.90;;;;;;5034678;28;20492;-63
2021/05/31 02:19:18;;;;;;;29.35;14.63;;;10.50;99.90;;;;;;5036782;28;20035;-64
2021/05/31 02:21:45;;;;;;;23.15;14.07;;;10.60;99.90;;;;;;5035473;28;20132;-64
2021/05/31 02:24:11;;;;;;;24.60;14.80;;;10.60;99.90;;;;;;5035197;28;20169;-64
2021/05/31 02:26:38;;;;;;;25.20;14.68;;;10.70;99.90;;;;;;5034946;28;20347;-63
2021/05/31 02:29:04;;;;;;;20.63;13.80;;;10.70;99.90;;;;;;5035487;28;20381;-63
2021/05/31 02:31:32;;;;;;;22.05;13.65;;;10.60;99.90;;;;;;5035560;28;20025;-64
2021/05/31 02:33:58;;;;;;;22.80;14.00;;;10.60;99.90;;;;;;5035636;28;20032;-64
2021/05/31 02:36:24;;;;;;;24.90;13.63;;;10.70;99.90;;;;;;5036088;28;20067;-64
2021/05/31 02:38:50;;;;;;;24.95;14.40;;;10.80;99.90;;;;;;5036683;28;20055;-63
2021/05/31 02:41:16;;;;;;;27.10;14.70;;;10.80;99.90;;;;;;5034952;28;20465;-64
2021/05/31 02:43:42;;;;;;;28.23;14.07;;;10.80;99.90;;;;;;5035746;28;20044;-63
2021/05/31 02:46:08;;;;;;;27.58;13.43;;;10.70;99.90;;;;;;5034529;28;20658;-64
2021/05/31 02:48:34;;;;;;;25.58;14.43;;;10.60;99.90;;;;;;5037907;28;20557;-63
2021/05/31 02:51:00;;;;;;;30.58;13.27;;;10.70;99.90;;;;;;5035336;28;20086;-63
2021/05/31 02:53:26;;;;;;;29.60;14.68;;;10.60;99.90;;;;;;5036947;28;20033;-64
2021/05/31 02:55:53;;;;;;;27.35;14.93;;;10.60;99.90;;;;;;5034732;28;20033;-62
2021/05/31 02:58:19;;;;;;;23.85;14.05;;;10.60;99.90;;;;;;5035651;28;20025;-63
2021/05/31 03:00:45;;;;;;;23.75;13.95;;;10.60;99.90;;;;;;5037108;28;20040;-64
2021/05/31 03:03:11;;;;;;;22.60;13.95;;;10.60;99.90;;;;;;5036667;28;20530;-64
2021/05/31 03:05:37;;;;;;;21.73;13.07;;;10.50;99.90;;;;;;5036558;28;20450;-63
2021/05/31 03:08:04;;;;;;;24.75;14.27;;;10.60;99.90;;;;;;5036212;28;20132;-63
2021/05/31 03:10:30;;;;;;;25.90;12.65;;;10.60;99.90;;;;;;5034029;28;20033;-64
2021/05/31 03:12:59;;;;;;;26.63;13.18;;;10.60;99.90;;;;;;5035694;28;20025;-64
2021/05/31 03:15:26;;;;;;;25.63;14.05;;;10.60;99.90;;;;;;5035078;28;20092;-64
2021/05/31 03:17:52;;;;;;;23.83;12.30;;;10.60;99.90;;;;;;5034561;28;20348;-64
2021/05/31 03:20:21;;;;;;;28.17;12.38;;;10.70;99.90;;;;;;5033506;28;20357;-63
2021/05/31 03:22:47;;;;;;;24.92;13.30;;;10.80;99.90;;;;;;5034327;28;20480;-63
2021/05/31 03:25:13;;;;;;;19.25;12.18;;;10.70;99.90;;;;;;5036791;28;20044;-63
2021/05/31 03:27:40;;;;;;;26.20;13.13;;;10.70;99.90;;;;;;5035426;28;20079;-63
2021/05/31 03:30:10;;;;;;;22.02;12.65;;;10.80;99.90;;;;;;5032785;28;20090;-63
2021/05/31 03:32:37;;;;;;;27.30;13.05;;;10.80;99.90;;;;;;5032218;28;20036;-63
2021/05/31 03:35:05;;;;;;;23.15;11.02;;;10.80;99.90;;;;;;5033985;28;20790;-64
2021/05/31 03:37:31;;;;;;;20.50;10.40;;;10.70;99.90;;;;;;5033857;28;20041;-63
2021/05/31 03:39:57;;;;;;;27.00;12.65;;;10.70;99.90;;;;;;5032901;28;20035;-63
2021/05/31 03:42:23;;;;;;;22.67;11.35;;;10.60;99.90;;;;;;5034277;28;20575;-63
2021/05/31 03:44:49;;;;;;;37.75;13.27;;;10.60;99.90;;;;;;5031062;28;20071;-63
2021/05/31 03:47:15;;;;;;;20.70;11.50;;;10.70;99.90;;;;;;5013121;28;20024;-63
2021/05/31 03:49:40;;;;;;;22.95;12.40;;;10.60;99.90;;;;;;5032109;28;20040;-63
2021/05/31 03:52:06;;;;;;;26.17;12.93;;;10.60;99.90;;;;;;5034613;28;20037;-63
2021/05/31 03:54:32;;;;;;;27.58;12.57;;;10.60;99.90;;;;;;5027490;28;20028;-63
2021/05/31 03:56:58;;;;;;;25.50;13.55;;;10.50;99.90;;;;;;5033700;28;20071;-63
2021/05/31 03:59:25;;;;;;;21.30;11.77;;;10.50;99.90;;;;;;5000862;28;20031;-63
2021/05/31 04:01:51;;;;;;;21.40;12.13;;;10.60;99.90;;;;;;5030186;28;20165;-63
2021/05/31 04:04:19;;;;;;;20.92;11.63;;;10.70;99.90;;;;;;5023575;28;20499;-63
2021/05/31 04:11:58;;;;;;;21.70;12.23;;;10.80;99.90;;;;;;5036160;28;20024;-72
2021/05/31 04:14:24;;;;;;;26.85;13.90;;;10.70;99.90;;;;;;5033475;28;20036;-72
2021/05/31 04:16:54;;;;;;;20.70;11.60;;;10.80;99.90;;;;;;5011380;28;20035;-72
2021/05/31 04:19:22;;;;;;;20.60;10.98;;;10.80;99.90;;;;;;5032843;28;20124;-72
2021/05/31 04:21:51;;;;;;;23.70;13.32;;;10.90;99.90;;;;;;5031282;28;20017;-72
2021/05/31 04:24:17;;;;;;;22.80;12.60;;;10.90;99.90;;;;;;5027524;28;20064;-71
2021/05/31 04:26:44;;;;;;;20.67;12.25;;;11.00;99.90;;;;;;5032291;28;20512;-72
2021/05/31 04:29:11;;;;;;;20.30;10.57;;;11.00;99.90;;;;;;5034852;28;20025;-72
2021/05/31 04:31:38;;;;;;;20.85;11.63;;;11.00;99.90;;;;;;5033064;28;20063;-71
2021/05/31 04:34:06;;;;;;;20.10;11.13;;;11.00;99.90;;;;;;5029762;28;20052;-72
2021/05/31 04:36:32;;;;;;;18.67;11.10;;;11.00;99.90;;;;;;5027188;28;20045;-72
2021/05/31 04:38:59;;;;;;;21.63;12.95;;;11.00;99.90;;;;;;5033574;28;20032;-72
2021/05/31 04:41:26;;;;;;;27.13;11.98;;;11.10;99.90;;;;;;4990833;28;20030;-72
2021/05/31 04:43:52;;;;;;;21.65;10.68;;;11.20;99.90;;;;;;5032469;28;20029;-71
2021/05/31 04:46:18;;;;;;;20.42;13.05;;;11.20;99.90;;;;;;5034666;28;20385;-72
2021/05/31 04:48:44;;;;;;;19.98;11.43;;;11.10;99.90;;;;;;5031984;28;20262;-72
2021/05/31 04:51:09;;;;;;;22.58;13.13;;;11.20;99.90;;;;;;5030679;28;20033;-72
2021/05/31 04:53:35;;;;;;;27.48;13.40;;;11.20;99.90;;;;;;5034495;28;20032;-72
2021/05/31 04:56:04;;;;;;;23.35;13.43;;;11.30;99.90;;;;;;5027916;28;20037;-72
2021/05/31 04:58:31;;;;;;;23.40;12.40;;;11.30;99.90;;;;;;5031891;28;20017;-72
2021/05/31 05:00:56;;;;;;;29.42;15.60;;;11.30;99.90;;;;;;5034853;28;20045;-72
2021/05/31 05:03:22;;;;;;;30.13;13.80;;;11.30;99.90;;;;;;5031969;28;20099;-72
2021/05/31 05:05:49;;;;;;;38.10;14.93;;;11.40;99.90;;;;;;5025065;28;20032;-72
2021/05/31 05:08:16;;;;;;;26.15;14.88;;;11.30;99.90;;;;;;5033386;28;20526;-72
2021/05/31 05:10:43;;;;;;;27.35;13.80;;;11.40;99.90;;;;;;5034949;28;20087;-72
2021/05/31 05:13:09;;;;;;;27.67;12.93;;;11.60;99.90;;;;;;5033225;28;20052;-77
2021/05/31 05:15:35;;;;;;;22.25;12.48;;;11.60;99.90;;;;;;5027306;28;20037;-72
2021/05/31 05:18:02;;;;;;;22.77;12.88;;;11.80;99.90;;;;;;5032673;28;20051;-72
2021/05/31 05:20:30;;;;;;;23.35;11.48;;;11.80;99.90;;;;;;5035473;28;20381;-72
2021/05/31 05:22:57;;;;;;;25.80;13.00;;;11.90;99.90;;;;;;5014174;28;20029;-73
2021/05/31 05:25:23;;;;;;;21.67;11.73;;;11.90;99.90;;;;;;5036106;28;20052;-72
2021/05/31 05:27:50;;;;;;;23.67;11.13;;;12.00;99.90;;;;;;5038662;28;20032;-73
2021/05/31 05:30:19;;;;;;;18.02;10.82;;;12.10;99.90;;;;;;5037517;28;20037;-73
2021/05/31 05:32:49;;;;;;;17.42;9.90;;;12.20;99.90;;;;;;5036866;28;20040;-73
2021/05/31 05:38:09;;;;;;;;;;;12.30;99.90;;;;;;5038540;28;20471;-73
2021/05/31 05:48:23;;;;;;;19.35;10.57;;;12.70;99.90;;;;;;5035006;28;20021;-73
2021/05/31 05:50:49;;;;;;;17.92;10.05;;;12.60;99.90;;;;;;5034652;28;20066;-73
2021/05/31 05:53:15;;;;;;;17.73;9.45;;;12.70;99.90;;;;;;5032042;28;20033;-73
2021/05/31 05:55:41;;;;;;;23.05;11.27;;;12.70;99.90;;;;;;5033633;28;20029;-73
2021/05/31 05:58:07;;;;;;;22.40;12.65;;;12.70;99.90;;;;;;5035507;28;20052;-74
2021/05/31 06:00:34;;;;;;;20.90;11.65;;;12.70;99.90;;;;;;5036564;28;20396;-73
2021/05/31 06:03:00;;;;;;;23.58;11.73;;;12.70;99.90;;;;;;5030759;28;20033;-72
2021/05/31 06:05:26;;;;;;;20.30;10.90;;;12.70;99.90;;;;;;5029781;28;20389;-73
2021/05/31 06:07:52;;;;;;;16.50;10.40;;;12.90;99.90;;;;;;5033834;28;20636;-73
2021/05/31 06:10:18;;;;;;;20.38;11.88;;;13.20;99.90;;;;;;5039364;28;20036;-73
2021/05/31 06:12:44;;;;;;;23.02;11.45;;;13.60;99.90;;;;;;5036283;28;20040;-73
2021/05/31 06:15:12;;;;;;;22.33;12.05;;;13.80;99.90;;;;;;5036254;28;20371;-72
2021/05/31 06:17:38;;;;;;;18.27;11.32;;;14.10;99.90;;;;;;5035281;28;20041;-73
2021/05/31 06:20:05;;;;;;;24.58;12.18;;;14.00;99.90;;;;;;5037121;28;20073;-73
2021/05/31 06:22:33;;;;;;;15.68;10.23;;;14.20;99.90;;;;;;5036485;28;20029;-73
2021/05/31 06:24:59;;;;;;;20.83;11.02;;;14.40;99.90;;;;;;5032079;28;20195;-70
2021/05/31 06:27:25;;;;;;;30.95;14.52;;;14.70;99.90;;;;;;5036611;28;20037;-73
2021/05/31 06:29:51;;;;;;;17.65;10.63;;;14.80;99.90;;;;;;5038737;28;20134;-70
2021/05/31 06:32:17;;;;;;;18.63;10.65;;;15.00;99.90;;;;;;5038363;28;20109;-71
2021/05/31 06:34:43;;;;;;;19.35;11.02;;;15.30;99.90;;;;;;5034626;28;20021;-71
2021/05/31 06:37:09;;;;;;;22.38;11.60;;;15.70;99.90;;;;;;5036459;28;20025;-71
2021/05/31 06:39:35;;;;;;;23.48;11.70;;;16.10;99.90;;;;;;5035156;28;20443;-71
2021/05/31 06:42:03;;;;;;;22.13;11.48;;;16.20;99.90;;;;;;5038427;28;20029;-71
2021/05/31 06:44:28;;;;;;;17.13;10.35;;;16.30;99.90;;;;;;5037855;28;20056;-71
2021/05/31 06:46:54;;;;;;;14.60;9.70;;;16.30;99.90;;;;;;5036298;28;20472;-71
2021/05/31 06:49:20;;;;;;;20.52;11.13;;;16.30;99.90;;;;;;5038539;28;20055;-72
2021/05/31 06:51:46;;;;;;;23.05;11.38;;;16.40;99.90;;;;;;5035061;28;20037;-71
2021/05/31 06:54:12;;;;;;;14.20;8.35;;;16.60;99.90;;;;;;5036974;28;20456;-71
2021/05/31 06:56:37;;;;;;;14.07;7.57;;;16.70;99.90;;;;;;5038097;28;20037;-72
2021/05/31 06:59:03;;;;;;;17.80;7.97;;;16.80;99.90;;;;;;5037816;28;20585;-72
2021/05/31 07:01:29;;;;;;;28.30;10.77;;;17.10;99.90;;;;;;5017031;28;20035;-72
2021/05/31 07:03:55;;;;;;;15.00;8.27;;;17.00;99.90;;;;;;5037854;28;20033;-72
2021/05/31 07:06:21;;;;;;;14.70;7.95;;;17.00;99.90;;;;;;5036790;28;20041;-71
2021/05/31 07:08:47;;;;;;;13.38;8.55;;;17.10;99.90;;;;;;5011695;28;20551;-72
2021/05/31 07:11:16;;;;;;;14.98;7.97;;;17.30;99.90;;;;;;5037015;28;20025;-72
2021/05/31 07:13:43;;;;;;;12.38;7.40;;;17.40;99.90;;;;;;5035057;28;20160;-72
2021/05/31 07:16:16;;;;;;;15.07;7.57;;;17.20;99.90;;;;;;5019091;28;20033;-72
2021/05/31 07:18:42;;;;;;;13.60;8.45;;;17.10;99.90;;;;;;5036690;28;20044;-72
2021/05/31 07:21:08;;;;;;;11.75;7.97;;;17.10;99.90;;;;;;5036019;28;20017;-72
2021/05/31 07:23:37;;;;;;;17.35;7.68;;;17.30;99.90;;;;;;5036522;28;20511;-71
2021/05/31 07:26:04;;;;;;;13.07;8.07;;;17.30;99.90;;;;;;5036816;28;20032;-71
2021/05/31 07:28:31;;;;;;;16.70;8.23;;;17.40;99.90;;;;;;5037955;28;20028;-72
2021/05/31 07:30:56;;;;;;;16.33;8.15;;;17.60;99.90;;;;;;5036214;28;20254;-72
2021/05/31 07:33:22;;;;;;;12.38;8.48;;;17.70;99.90;;;;;;5037262;28;20021;-71
2021/05/31 07:35:49;;;;;;;15.25;8.27;;;17.60;99.90;;;;;;5036730;28;20111;-72
2021/05/31 07:38:15;;;;;;;13.43;7.28;;;17.80;99.90;;;;;;5016799;28;20854;-72
2021/05/31 07:40:41;;;;;;;13.93;8.50;;;17.90;99.90;;;;;;5036025;28;20066;-72
2021/05/31 07:43:07;;;;;;;13.63;8.02;;;17.90;99.90;;;;;;5038183;28;20044;-72
2021/05/31 07:45:33;;;;;;;14.27;8.25;;;18.00;99.90;;;;;;5037100;28;20037;-72
2021/05/31 07:47:59;;;;;;;19.63;8.40;;;18.40;99.90;;;;;;5035807;28;20033;-72
2021/05/31 07:50:25;;;;;;;11.20;7.40;;;18.70;99.90;;;;;;5026993;28;20032;-72
2021/05/31 07:52:51;;;;;;;14.88;7.38;;;18.70;99.90;;;;;;5033075;28;20622;-72
2021/05/31 07:55:18;;;;;;;15.77;7.15;;;18.60;99.90;;;;;;5037967;28;20037;-72
2021/05/31 07:57:45;;;;;;;12.52;5.82;;;18.20;99.90;;;;;;5037361;28;20036;-72
2021/05/31 08:00:14;;;;;;;10.48;7.55;;;18.00;99.90;;;;;;5018464;28;20060;-72
2021/05/31 08:02:43;;;;;;;12.80;7.40;;;17.90;99.90;;;;;;5036802;28;20032;-72
2021/05/31 08:05:11;;;;;;;11.67;6.70;;;18.30;99.90;;;;;;5034011;28;20051;-72
2021/05/31 08:07:36;;;;;;;15.57;8.38;;;18.40;99.90;;;;;;5033718;28;20025;-71
2021/05/31 08:10:03;;;;;;;16.77;8.25;;;18.50;99.90;;;;;;5037068;28;20032;-72
2021/05/31 08:12:29;;;;;;;11.60;7.43;;;18.80;99.90;;;;;;5037137;28;20459;-72
2021/05/31 08:14:55;;;;;;;13.80;7.20;;;18.80;99.90;;;;;;5035241;28;20024;-73
2021/05/31 08:17:20;;;;;;;13.10;6.95;;;18.90;99.90;;;;;;5037634;28;20409;-72
2021/05/31 08:19:46;;;;;;;16.10;7.45;;;19.00;99.90;;;;;;5034658;28;20521;-73
2021/05/31 08:22:12;;;;;;;14.57;7.32;;;18.80;99.90;;;;;;5035429;28;20411;-72
2021/05/31 08:24:38;;;;;;;17.55;8.32;;;18.70;99.90;;;;;;5036588;28;20045;-72
2021/05/31 08:27:05;;;;;;;12.98;7.75;;;19.00;99.90;;;;;;5032284;28;20480;-72
2021/05/31 08:29:31;;;;;;;13.13;7.72;;;19.10;99.90;;;;;;5036691;28;20090;-72
2021/05/31 08:31:57;;;;;;;12.52;7.00;;;19.10;99.90;;;;;;5034129;28;20436;-73
2021/05/31 08:34:24;;;;;;;18.00;7.38;;;19.40;99.90;;;;;;5034847;28;20109;-72
2021/05/31 08:36:50;;;;;;;14.10;8.20;;;19.40;99.90;;;;;;5034957;28;20526;-72
2021/05/31 08:39:16;;;;;;;14.40;7.65;;;19.20;99.90;;;;;;5035071;28;20110;-73
2021/05/31 08:41:42;;;;;;;10.73;7.97;;;19.40;99.90;;;;;;5036613;28;20029;-72
2021/05/31 08:44:09;;;;;;;14.13;7.20;;;19.60;99.90;;;;;;5034940;28;20555;-73
2021/05/31 08:46:36;;;;;;;16.38;7.35;;;19.70;99.90;;;;;;5016388;28;20052;-73
2021/05/31 08:49:03;;;;;;;13.50;6.85;;;19.70;99.90;;;;;;5034946;28;20017;-73
2021/05/31 08:51:29;;;;;;;10.98;6.55;;;19.30;99.90;;;;;;5036736;28;20033;-73
2021/05/31 08:53:56;;;;;;;11.68;7.32;;;19.20;99.90;;;;;;5035275;28;20025;-72
2021/05/31 08:56:22;;;;;;;14.32;7.00;;;19.00;99.90;;;;;;5016260;28;20025;-72
2021/05/31 08:58:48;;;;;;;14.10;7.93;;;19.30;99.90;;;;;;5015804;28;20075;-74
2021/05/31 09:01:15;;;;;;;14.75;7.00;;;19.50;99.90;;;;;;5035170;28;20518;-72
2021/05/31 09:03:42;;;;;;;15.23;7.40;;;20.00;99.90;;;;;;5035694;28;20116;-72
2021/05/31 09:06:10;;;;;;;11.27;6.97;;;20.30;99.90;;;;;;5035479;28;20409;-75
2021/05/31 09:08:36;;;;;;;13.07;6.22;;;20.40;99.90;;;;;;5017469;28;20477;-76
2021/05/31 09:11:06;;;;;;;13.43;7.25;;;20.40;99.90;;;;;;5035777;28;20563;-73
2021/05/31 09:13:37;;;;;;;14.43;6.93;;;20.00;99.90;;;;;;5034253;28;20029;-73
2021/05/31 09:16:06;;;;;;;13.98;7.05;;;19.80;99.90;;;;;;5018134;28;20551;-72
2021/05/31 09:18:33;;;;;;;10.70;6.10;;;19.90;99.90;;;;;;5037015;28;20033;-73
2021/05/31 09:21:24;;;;;;;18.35;7.38;;;20.10;99.90;;;;;;5035579;28;20021;-73
2021/05/31 09:23:57;;;;;;;12.80;6.38;;;20.30;99.90;;;;;;5034766;28;20408;-73
2021/05/31 09:26:23;;;;;;;12.25;6.72;;;20.50;99.90;;;;;;5035023;28;20044;-73
2021/05/31 09:28:58;;;;;;;8.88;5.88;;;20.40;99.90;;;;;;5035956;28;20074;-72
2021/05/31 09:31:26;;;;;;;9.75;6.30;;;20.40;99.90;;;;;;5034896;28;20120;-73
2021/05/31 09:34:01;;;;;;;10.30;5.88;;;20.40;99.90;;;;;;5036488;28;20032;-74
2021/05/31 09:36:28;;;;;;;10.63;6.07;;;20.40;99.90;;;;;;5035285;28;20374;-73
2021/05/31 09:38:55;;;;;;;11.73;6.38;;;20.30;99.90;;;;;;5035828;28;20063;-73
2021/05/31 09:41:32;;;;;;;12.70;6.75;;;20.20;99.90;;;;;;5034954;28;20022;-73
2021/05/31 09:44:08;;;;;;;12.00;5.93;;;20.20;99.90;;;;;;5036993;28;20098;-73
2021/05/31 09:46:44;;;;;;;8.63;5.78;;;20.40;99.90;;;;;;5035765;28;20055;-73
2021/05/31 09:49:18;;;;;;;10.70;6.30;;;20.40;99.90;;;;;;5038762;28;20032;-72
2021/05/31 09:51:51;;;;;;;9.70;5.88;;;20.50;99.90;;;;;;5021094;28;20025;-73
2021/05/31 09:54:49;;;;;;;15.05;6.05;;;20.50;99.90;;;;;;5038726;28;20029;-73
2021/05/31 09:57:24;;;;;;;9.93;6.07;;;20.40;99.90;;;;;;5019253;28;20427;-73
2021/05/31 09:59:54;;;;;;;8.30;5.18;;;20.50;99.90;;;;;;5039426;28;20025;-73
2021/05/31 10:02:40;;;;;;;13.48;6.57;;;20.50;99.90;;;;;;5038383;28;20036;-73
2021/05/31 10:10:20;;;;;;;11.60;6.67;;;21.10;99.90;;;;;;5038485;28;20524;-73
2021/05/31 10:12:48;;;;;;;10.18;5.68;;;21.00;99.90;;;;;;5037996;28;20466;-74
2021/05/31 10:15:18;;;;;;;27.40;10.80;;;21.00;99.90;;;;;;5037518;28;20079;-73
2021/05/31 10:17:45;;;;;;;;;;;20.90;99.90;;;;;;5019502;28;20055;-73
2021/05/31 10:20:12;;;;;;;10.05;5.57;;;20.80;99.90;;;;;;5039185;28;19952;-73
2021/05/31 10:22:38;;;;;;;10.30;6.18;;;20.80;99.90;;;;;;5038081;28;20115;-71
2021/05/31 10:25:07;;;;;;;14.38;6.88;;;21.00;99.90;;;;;;5037923;28;20036;-73
2021/05/31 10:27:34;;;;;;;8.87;5.50;;;21.00;99.90;;;;;;5033147;28;20615;-73
2021/05/31 10:30:02;;;;;;;10.85;6.20;;;21.00;99.90;;;;;;5037725;28;20411;-73
2021/05/31 10:32:28;;;;;;;15.20;5.88;;;21.00;99.90;;;;;;5038687;28;20028;-73
2021/05/31 10:34:54;;;;;;;10.55;5.90;;;21.00;99.90;;;;;;5038525;28;20025;-73
2021/05/31 10:37:26;;;;;;;11.20;6.07;;;21.20;99.90;;;;;;5037994;28;20361;-74
2021/05/31 10:40:11;;;;;;;10.00;5.32;;;21.10;99.90;;;;;;5037846;28;20055;-73
2021/05/31 10:42:47;;;;;;;8.65;5.75;;;21.00;99.90;;;;;;5036958;28;20106;-73
2021/05/31 10:45:25;;;;;;;11.57;6.03;;;20.90;99.90;;;;;;5037349;28;20142;-74
2021/05/31 10:48:11;;;;;;;10.88;5.65;;;21.20;99.90;;;;;;5038827;28;20044;-73
2021/05/31 10:50:45;;;;;;;10.80;6.03;;;21.10;99.90;;;;;;5038419;28;20085;-73
2021/05/31 10:56:06;;;;;;;10.68;5.88;;;20.70;99.90;;;;;;5035247;28;20091;-73
2021/05/31 10:58:40;;;;;;;12.65;5.95;;;20.70;99.90;;;;;;5036612;28;20247;-74
2021/05/31 11:01:11;;;;;;;14.50;5.55;;;21.00;99.90;;;;;;5036068;28;20021;-73
2021/05/31 11:03:52;;;;;;;11.10;6.25;;;21.00;99.90;;;;;;5038113;28;20029;-74
2021/05/31 11:06:21;;;;;;;7.45;4.70;;;21.00;99.90;;;;;;5037577;28;20132;-73
2021/05/31 11:09:03;;;;;;;11.90;5.55;;;20.90;99.90;;;;;;5037511;28;20029;-73
2021/05/31 11:11:37;;;;;;;11.57;5.85;;;20.90;99.90;;;;;;5033326;28;20054;-73
2021/05/31 11:14:03;;;;;;;8.77;5.13;;;20.90;99.90;;;;;;5035490;28;20036;-73
2021/05/31 11:16:32;;;;;;;7.93;5.10;;;20.60;99.90;;;;;;5035470;28;20032;-73
2021/05/31 11:19:00;;;;;;;12.80;6.10;;;20.50;99.90;;;;;;5037909;28;20583;-72
2021/05/31 11:21:41;;;;;;;10.65;4.60;;;20.40;99.90;;;;;;5037597;28;20082;-73
2021/05/31 11:24:09;;;;;;;10.82;5.25;;;20.50;99.90;;;;;;5037476;28;20064;-72
2021/05/31 11:26:37;;;;;;;12.35;5.43;;;20.60;99.90;;;;;;5035705;28;20460;-73
2021/05/31 11:29:05;;;;;;;9.15;5.47;;;20.70;99.90;;;;;;5036328;28;20116;-73
2021/05/31 11:31:31;;;;;;;7.55;4.90;;;20.80;99.90;;;;;;5036005;28;20017;-73
2021/05/31 11:33:57;;;;;;;8.57;4.78;;;21.10;99.90;;;;;;5036330;28;20039;-73
2021/05/31 11:36:32;;;;;;;10.50;4.90;;;21.10;99.90;;;;;;5037256;28;20028;-72
2021/05/31 11:39:00;;;;;;;8.30;5.03;;;20.70;99.90;;;;;;5037068;28;20155;-72
2021/05/31 11:41:31;;;;;;;10.93;5.05;;;20.50;99.90;;;;;;5036382;28;20039;-72
2021/05/31 11:43:57;;;;;;;11.30;5.55;;;20.50;99.90;;;;;;5036812;28;20040;-73
2021/05/31 11:46:23;;;;;;;11.18;5.00;;;20.50;99.90;;;;;;5018909;28;20405;-73
2021/05/31 11:48:49;;;;;;;12.68;6.38;;;20.70;99.90;;;;;;5037513;28;20025;-72
2021/05/31 11:51:15;;;;;;;13.32;6.00;;;20.40;99.90;;;;;;5037352;28;20033;-73
2021/05/31 11:53:45;;;;;;;18.95;7.32;;;20.50;99.90;;;;;;5037354;28;20021;-72
2021/05/31 11:56:12;;;;;;;13.73;6.88;;;20.60;99.90;;;;;;5035729;28;20036;-72
2021/05/31 11:58:44;;;;;;;10.93;5.32;;;20.70;99.90;;;;;;5036953;28;20559;-73
2021/05/31 12:01:11;;;;;;;13.45;5.60;;;20.60;99.90;;;;;;5036710;28;20037;-73
2021/05/31 12:03:39;;;;;;;11.82;5.57;;;20.60;99.90;;;;;;5034197;28;20037;-73
2021/05/31 12:06:12;;;;;;;12.13;5.50;;;20.60;99.90;;;;;;5033825;28;20396;-73
2021/05/31 12:08:38;;;;;;;11.52;5.43;;;20.70;99.90;;;;;;5037099;28;20033;-72
2021/05/31 12:11:04;;;;;;;9.50;4.55;;;20.80;99.90;;;;;;5037279;28;20094;-73
2021/05/31 12:13:32;;;;;;;9.93;5.18;;;20.60;99.90;;;;;;5034261;28;20025;-73
2021/05/31 12:15:58;;;;;;;12.13;5.82;;;20.60;99.90;;;;;;5035768;28;20031;-72
2021/05/31 12:18:26;;;;;;;9.32;4.45;;;20.90;99.90;;;;;;5035547;28;20036;-72
2021/05/31 12:20:57;;;;;;;13.02;5.63;;;20.90;99.90;;;;;;5035625;28;20159;-73
2021/05/31 12:23:23;;;;;;;12.93;5.88;;;20.90;99.90;;;;;;5035827;28;20045;-72
2021/05/31 12:25:52;;;;;;;11.13;4.85;;;20.80;99.90;;;;;;5036248;28;20170;-73
2021/05/31 12:28:19;;;;;;;16.58;6.07;;;20.50;99.90;;;;;;5033582;28;20097;-73
2021/05/31 12:30:52;;;;;;;12.45;7.43;;;20.30;99.90;;;;;;5035732;28;20037;-72
2021/05/31 12:33:18;;;;;;;11.05;5.38;;;20.40;99.90;;;;;;5034408;28;20377;-72
2021/05/31 12:35:48;;;;;;;11.63;5.93;;;20.60;99.90;;;;;;5036310;28;20582;-72
2021/05/31 12:38:14;;;;;;;;;;;20.40;99.90;;;;;;5036319;28;20707;-72
2021/05/31 12:40:41;;;;;;;15.48;6.75;;;20.40;99.90;;;;;;5035169;28;19951;-72
2021/05/31 12:43:08;;;;;;;11.55;5.82;;;20.40;99.90;;;;;;5018594;28;20543;-72
2021/05/31 12:45:42;;;;;;;12.65;6.00;;;20.30;99.90;;;;;;5036083;28;20132;-71
2021/05/31 12:48:23;;;;;;;10.68;4.95;;;20.30;99.90;;;;;;5036165;28;20048;-72
2021/05/31 12:50:51;;;;;;;15.15;6.10;;;20.20;99.90;;;;;;5035326;28;20025;-72
2021/05/31 12:53:18;;;;;;;17.98;6.03;;;20.20;99.90;;;;;;5034913;28;20459;-72
2021/05/31 12:55:45;;;;;;;13.55;5.30;;;20.30;99.90;;;;;;5035586;28;20114;-71
2021/05/31 12:58:10;;;;;;;15.43;5.90;;;20.10;99.90;;;;;;5036787;28;20021;-72
2021/05/31 13:00:36;;;;;;;10.82;6.00;;;19.90;99.90;;;;;;5035592;28;20041;-71
2021/05/31 13:03:02;;;;;;;13.57;5.75;;;19.70;99.90;;;;;;5034664;28;20493;-73